sensor_id;sensor_type;location;lat;lon;timestamp;pressure;altitude;pressure_sealevel;temperature;humidity
55277;BME280;41136;51.478;-2.610;2023-02-20T00:02:15;101834.78;;;7.91;100.00
55277;BME280;41136;51.478;-2.610;2023-02-20T00:04:40;101831.46;;;7.48;100.00
55277;BME280;41136;51.478;-2.610;2023-02-20T00:07:05;101823.82;;;7.66;100.00
55277;BME280;41136;51.478;-2.610;2023-02-20T00:09:31;101822.16;;;8.08;100.00
55277;BME280;41136;51.478;-2.610;2023-02-20T00:11:56;101823.46;;;7.46;100.00
55277;BME280;41136;51.478;-2.610;2023-02-20T00:14:22;101827.50;;;7.39;100.00
55277;BME280;41136;51.478;-2.610;2023-02-20T00:16:47;101820.36;;;7.59;100.00
55277;BME280;41136;51.478;-2.610;2023-02-20T00:19:12;101824.00;;;7.48;100.00
55277;BME280;41136;51.478;-2.610;2023-02-20T00:21:44;101820.32;;;7.52;100.00
55277;BME280;41136;51.478;-2.610;2023-02-20T00:24:04;101821.36;;;7.55;100.00
55277;BME280;41136;51.478;-2.610;2023-02-20T00:26:28;101819.11;;;7.43;100.00
55277;BME280;41136;51.478;-2.610;2023-02-20T00:28:54;101816.71;;;8.01;100.00
55277;BME280;41136;51.478;-2.610;2023-02-20T00:31:19;101812.46;;;7.45;100.00
55277;BME280;41136;51.478;-2.610;2023-02-20T00:33:45;101812.21;;;8.06;100.00
55277;BME280;41136;51.478;-2.610;2023-02-20T00:36:14;101810.03;;;7.92;100.00
55277;BME280;41136;51.478;-2.610;2023-02-20T00:38:35;101805.44;;;8.37;100.00
55277;BME280;41136;51.478;-2.610;2023-02-20T00:41:01;101802.78;;;7.87;100.00
55277;BME280;41136;51.478;-2.610;2023-02-20T00:43:26;101796.63;;;8.10;100.00
55277;BME280;41136;51.478;-2.610;2023-02-20T00:45:52;101795.46;;;8.20;100.00
55277;BME280;41136;51.478;-2.610;2023-02-20T00:48:17;101792.55;;;8.42;100.00
55277;BME280;41136;51.478;-2.610;2023-02-20T00:50:42;101791.90;;;7.72;100.00
55277;BME280;41136;51.478;-2.610;2023-02-20T00:53:08;101786.84;;;7.53;100.00
55277;BME280;41136;51.478;-2.610;2023-02-20T00:55:33;101783.49;;;7.82;100.00
55277;BME280;41136;51.478;-2.610;2023-02-20T00:57:58;101784.92;;;7.56;100.00
55277;BME280;41136;51.478;-2.610;2023-02-20T01:00:26;101784.89;;;7.47;100.00
55277;BME280;41136;51.478;-2.610;2023-02-20T01:02:49;101787.41;;;7.75;100.00
55277;BME280;41136;51.478;-2.610;2023-02-20T01:05:15;101782.93;;;7.51;100.00
55277;BME280;41136;51.478;-2.610;2023-02-20T01:07:40;101782.11;;;6.90;100.00
55277;BME280;41136;51.478;-2.610;2023-02-20T01:10:07;101775.88;;;7.15;100.00
55277;BME280;41136;51.478;-2.610;2023-02-20T01:12:31;101779.32;;;6.96;100.00
55277;BME280;41136;51.478;-2.610;2023-02-20T01:14:56;101777.59;;;7.01;100.00
55277;BME280;41136;51.478;-2.610;2023-02-20T01:17:22;101773.43;;;6.93;100.00
55277;BME280;41136;51.478;-2.610;2023-02-20T01:19:47;101765.89;;;7.33;100.00
55277;BME280;41136;51.478;-2.610;2023-02-20T01:22:12;101772.44;;;6.83;100.00
55277;BME280;41136;51.478;-2.610;2023-02-20T01:24:38;101769.87;;;6.77;100.00
55277;BME280;41136;51.478;-2.610;2023-02-20T01:27:03;101766.64;;;6.51;100.00
55277;BME280;41136;51.478;-2.610;2023-02-20T01:29:28;101769.76;;;7.00;100.00
55277;BME280;41136;51.478;-2.610;2023-02-20T01:31:54;101768.21;;;7.09;100.00
55277;BME280;41136;51.478;-2.610;2023-02-20T01:34:20;101767.62;;;6.42;100.00
55277;BME280;41136;51.478;-2.610;2023-02-20T01:36:46;101755.28;;;6.75;100.00
55277;BME280;41136;51.478;-2.610;2023-02-20T01:39:10;101764.28;;;6.50;100.00
55277;BME280;41136;51.478;-2.610;2023-02-20T01:41:35;101764.27;;;6.45;100.00
55277;BME280;41136;51.478;-2.610;2023-02-20T01:44:01;101768.93;;;6.41;100.00
55277;BME280;41136;51.478;-2.610;2023-02-20T01:48:52;101766.17;;;6.55;100.00
55277;BME280;41136;51.478;-2.610;2023-02-20T01:51:17;101765.86;;;6.33;100.00
55277;BME280;41136;51.478;-2.610;2023-02-20T01:53:43;101761.04;;;6.80;100.00
55277;BME280;41136;51.478;-2.610;2023-02-20T01:56:08;101761.49;;;6.48;100.00
55277;BME280;41136;51.478;-2.610;2023-02-20T01:58:35;101759.48;;;6.51;100.00
55277;BME280;41136;51.478;-2.610;2023-02-20T02:00:59;101757.91;;;6.51;100.00
55277;BME280;41136;51.478;-2.610;2023-02-20T02:03:26;101766.28;;;6.03;100.00
55277;BME280;41136;51.478;-2.610;2023-02-20T02:05:52;101768.85;;;5.75;100.00
55277;BME280;41136;51.478;-2.610;2023-02-20T02:08:17;101768.12;;;5.89;100.00
55277;BME280;41136;51.478;-2.610;2023-02-20T02:10:48;101772.28;;;6.45;100.00
55277;BME280;41136;51.478;-2.610;2023-02-20T02:13:06;101769.26;;;6.37;100.00
55277;BME280;41136;51.478;-2.610;2023-02-20T02:19:16;101772.80;;;6.09;100.00
55277;BME280;41136;51.478;-2.610;2023-02-20T02:24:09;101767.68;;;6.32;100.00
55277;BME280;41136;51.478;-2.610;2023-02-20T02:26:43;101765.15;;;6.91;100.00
55277;BME280;41136;51.478;-2.610;2023-02-20T02:31:24;101772.40;;;6.29;100.00
55277;BME280;41136;51.478;-2.610;2023-02-20T02:36:17;101773.38;;;6.94;100.00
55277;BME280;41136;51.478;-2.610;2023-02-20T02:38:33;101771.86;;;6.55;100.00
55277;BME280;41136;51.478;-2.610;2023-02-20T02:41:02;101768.69;;;6.57;100.00
55277;BME280;41136;51.478;-2.610;2023-02-20T02:43:27;101768.65;;;6.60;100.00
55277;BME280;41136;51.478;-2.610;2023-02-20T02:45:51;101765.97;;;7.33;100.00
55277;BME280;41136;51.478;-2.610;2023-02-20T02:48:17;101764.01;;;7.21;100.00
55277;BME280;41136;51.478;-2.610;2023-02-20T02:50:39;101758.70;;;6.94;100.00
55277;BME280;41136;51.478;-2.610;2023-02-20T02:53:04;101758.23;;;6.39;100.00
55277;BME280;41136;51.478;-2.610;2023-02-20T02:55:30;101754.18;;;6.74;100.00
55277;BME280;41136;51.478;-2.610;2023-02-20T02:57:54;101752.68;;;6.78;100.00
55277;BME280;41136;51.478;-2.610;2023-02-20T03:00:21;101742.87;;;7.51;100.00
55277;BME280;41136;51.478;-2.610;2023-02-20T03:02:51;101750.57;;;7.51;100.00
55277;BME280;41136;51.478;-2.610;2023-02-20T03:05:12;101737.78;;;7.54;100.00
55277;BME280;41136;51.478;-2.610;2023-02-20T03:07:37;101740.51;;;6.96;100.00
55277;BME280;41136;51.478;-2.610;2023-02-20T03:10:03;101743.24;;;6.99;100.00
55277;BME280;41136;51.478;-2.610;2023-02-20T03:12:26;101736.85;;;7.78;100.00
55277;BME280;41136;51.478;-2.610;2023-02-20T03:14:57;101734.64;;;8.23;100.00
55277;BME280;41136;51.478;-2.610;2023-02-20T03:17:22;101731.70;;;8.19;100.00
55277;BME280;41136;51.478;-2.610;2023-02-20T03:19:45;101733.57;;;7.61;100.00
55277;BME280;41136;51.478;-2.610;2023-02-20T03:22:12;101728.24;;;7.75;100.00
55277;BME280;41136;51.478;-2.610;2023-02-20T03:24:34;101729.03;;;7.46;100.00
55277;BME280;41136;51.478;-2.610;2023-02-20T03:26:59;101729.35;;;8.20;100.00
55277;BME280;41136;51.478;-2.610;2023-02-20T03:29:28;101726.03;;;7.99;100.00
55277;BME280;41136;51.478;-2.610;2023-02-20T03:31:52;101721.00;;;8.74;100.00
55277;BME280;41136;51.478;-2.610;2023-02-20T03:34:17;101711.65;;;8.59;100.00
55277;BME280;41136;51.478;-2.610;2023-02-20T03:36:44;101713.03;;;8.77;100.00
55277;BME280;41136;51.478;-2.610;2023-02-20T03:39:08;101717.38;;;8.63;100.00
55277;BME280;41136;51.478;-2.610;2023-02-20T03:41:32;101724.09;;;8.41;100.00
55277;BME280;41136;51.478;-2.610;2023-02-20T03:43:56;101715.54;;;8.21;100.00
55277;BME280;41136;51.478;-2.610;2023-02-20T03:46:22;101713.57;;;8.61;100.00
55277;BME280;41136;51.478;-2.610;2023-02-20T03:48:50;101713.24;;;8.79;100.00
55277;BME280;41136;51.478;-2.610;2023-02-20T03:51:12;101709.77;;;8.88;100.00
55277;BME280;41136;51.478;-2.610;2023-02-20T03:53:38;101713.02;;;8.47;100.00
55277;BME280;41136;51.478;-2.610;2023-02-20T03:56:06;101703.87;;;8.47;100.00
55277;BME280;41136;51.478;-2.610;2023-02-20T03:58:30;101709.58;;;9.22;100.00
55277;BME280;41136;51.478;-2.610;2023-02-20T04:00:57;101706.02;;;9.03;100.00
55277;BME280;41136;51.478;-2.610;2023-02-20T04:03:26;101708.47;;;9.26;100.00
55277;BME280;41136;51.478;-2.610;2023-02-20T04:05:46;101708.50;;;9.28;100.00
55277;BME280;41136;51.478;-2.610;2023-02-20T04:08:15;101709.27;;;8.75;100.00
55277;BME280;41136;51.478;-2.610;2023-02-20T04:10:39;101702.94;;;9.19;100.00
55277;BME280;41136;51.478;-2.610;2023-02-20T04:13:01;101702.32;;;8.83;100.00
55277;BME280;41136;51.478;-2.610;2023-02-20T04:15:26;101699.03;;;9.15;100.00
55277;BME280;41136;51.478;-2.610;2023-02-20T04:17:55;101699.52;;;9.71;100.00
55277;BME280;41136;51.478;-2.610;2023-02-20T04:20:16;101697.90;;;8.59;100.00
55277;BME280;41136;51.478;-2.610;2023-02-20T04:22:44;101696.12;;;8.97;100.00
55277;BME280;41136;51.478;-2.610;2023-02-20T04:25:13;101696.25;;;8.66;100.00
55277;BME280;41136;51.478;-2.610;2023-02-20T04:27:32;101690.65;;;9.03;100.00
55277;BME280;41136;51.478;-2.610;2023-02-20T04:29:58;101694.67;;;9.03;100.00
55277;BME280;41136;51.478;-2.610;2023-02-20T04:32:23;101690.20;;;8.75;100.00
55277;BME280;41136;51.478;-2.610;2023-02-20T04:34:48;101690.45;;;9.26;100.00
55277;BME280;41136;51.478;-2.610;2023-02-20T04:37:17;101691.96;;;8.66;100.00
55277;BME280;41136;51.478;-2.610;2023-02-20T04:39:39;101682.84;;;8.65;100.00
55277;BME280;41136;51.478;-2.610;2023-02-20T04:42:05;101682.83;;;9.02;100.00
55277;BME280;41136;51.478;-2.610;2023-02-20T04:44:30;101683.36;;;8.46;100.00
55277;BME280;41136;51.478;-2.610;2023-02-20T04:46:55;101684.24;;;9.01;100.00
55277;BME280;41136;51.478;-2.610;2023-02-20T04:49:21;101685.04;;;9.24;100.00
55277;BME280;41136;51.478;-2.610;2023-02-20T04:51:46;101692.47;;;8.06;100.00
55277;BME280;41136;51.478;-2.610;2023-02-20T04:54:11;101685.73;;;8.50;100.00
55277;BME280;41136;51.478;-2.610;2023-02-20T04:56:37;101686.48;;;8.72;100.00
55277;BME280;41136;51.478;-2.610;2023-02-20T04:59:02;101690.29;;;8.07;100.00
55277;BME280;41136;51.478;-2.610;2023-02-20T05:01:27;101688.22;;;7.86;100.00
55277;BME280;41136;51.478;-2.610;2023-02-20T05:03:53;101694.51;;;8.54;100.00
55277;BME280;41136;51.478;-2.610;2023-02-20T05:06:18;101688.60;;;8.41;100.00
55277;BME280;41136;51.478;-2.610;2023-02-20T05:08:44;101688.81;;;8.63;100.00
55277;BME280;41136;51.478;-2.610;2023-02-20T05:11:09;101693.25;;;8.03;100.00
55277;BME280;41136;51.478;-2.610;2023-02-20T05:13:34;101688.70;;;8.77;100.00
55277;BME280;41136;51.478;-2.610;2023-02-20T05:16:00;101695.47;;;8.09;100.00
55277;BME280;41136;51.478;-2.610;2023-02-20T05:18:25;101703.04;;;8.27;100.00
55277;BME280;41136;51.478;-2.610;2023-02-20T05:20:51;101699.56;;;8.58;100.00
55277;BME280;41136;51.478;-2.610;2023-02-20T05:23:16;101705.29;;;7.78;100.00
55277;BME280;41136;51.478;-2.610;2023-02-20T05:25:41;101704.96;;;8.36;100.00
55277;BME280;41136;51.478;-2.610;2023-02-20T05:28:07;101701.52;;;8.13;100.00
55277;BME280;41136;51.478;-2.610;2023-02-20T05:32:54;101696.11;;;8.17;100.00
55277;BME280;41136;51.478;-2.610;2023-02-20T05:35:19;101691.69;;;7.60;100.00
55277;BME280;41136;51.478;-2.610;2023-02-20T05:37:45;101689.41;;;8.06;100.00
55277;BME280;41136;51.478;-2.610;2023-02-20T05:40:10;101696.12;;;7.61;100.00
55277;BME280;41136;51.478;-2.610;2023-02-20T05:42:35;101694.11;;;8.59;100.00
55277;BME280;41136;51.478;-2.610;2023-02-20T05:45:01;101690.73;;;7.85;100.00
55277;BME280;41136;51.478;-2.610;2023-02-20T05:47:26;101685.53;;;8.27;100.00
55277;BME280;41136;51.478;-2.610;2023-02-20T05:49:51;101693.25;;;8.21;100.00
55277;BME280;41136;51.478;-2.610;2023-02-20T05:52:17;101697.11;;;8.38;100.00
55277;BME280;41136;51.478;-2.610;2023-02-20T05:54:45;101691.59;;;8.62;100.00
55277;BME280;41136;51.478;-2.610;2023-02-20T05:57:11;101694.28;;;8.06;100.00
55277;BME280;41136;51.478;-2.610;2023-02-20T05:59:33;101697.84;;;8.27;100.00
55277;BME280;41136;51.478;-2.610;2023-02-20T06:01:59;101689.64;;;8.04;100.00
55277;BME280;41136;51.478;-2.610;2023-02-20T06:04:24;101688.70;;;7.90;100.00
55277;BME280;41136;51.478;-2.610;2023-02-20T06:06:49;101684.83;;;7.93;100.00
55277;BME280;41136;51.478;-2.610;2023-02-20T06:09:14;101677.12;;;8.69;100.00
55277;BME280;41136;51.478;-2.610;2023-02-20T06:11:40;101676.09;;;8.20;100.00
55277;BME280;41136;51.478;-2.610;2023-02-20T06:14:06;101684.34;;;7.95;100.00
55277;BME280;41136;51.478;-2.610;2023-02-20T06:16:31;101680.71;;;7.69;100.00
55277;BME280;41136;51.478;-2.610;2023-02-20T06:18:56;101672.97;;;8.23;100.00
55277;BME280;41136;51.478;-2.610;2023-02-20T06:21:22;101673.39;;;8.53;100.00
55277;BME280;41136;51.478;-2.610;2023-02-20T06:23:46;101672.14;;;8.46;100.00
55277;BME280;41136;51.478;-2.610;2023-02-20T06:26:13;101669.02;;;8.23;100.00
55277;BME280;41136;51.478;-2.610;2023-02-20T06:28:38;101663.77;;;8.43;100.00
55277;BME280;41136;51.478;-2.610;2023-02-20T06:31:03;101671.56;;;8.12;100.00
55277;BME280;41136;51.478;-2.610;2023-02-20T06:33:28;101668.39;;;8.56;100.00
55277;BME280;41136;51.478;-2.610;2023-02-20T06:35:53;101669.59;;;8.78;100.00
55277;BME280;41136;51.478;-2.610;2023-02-20T06:38:19;101673.01;;;7.93;100.00
55277;BME280;41136;51.478;-2.610;2023-02-20T06:40:44;101673.31;;;7.63;100.00
55277;BME280;41136;51.478;-2.610;2023-02-20T06:43:10;101669.76;;;8.46;100.00
55277;BME280;41136;51.478;-2.610;2023-02-20T06:45:35;101666.70;;;8.08;100.00
55277;BME280;41136;51.478;-2.610;2023-02-20T06:48:01;101666.87;;;7.85;100.00
55277;BME280;41136;51.478;-2.610;2023-02-20T06:50:26;101666.21;;;7.70;100.00
55277;BME280;41136;51.478;-2.610;2023-02-20T06:52:51;101671.40;;;7.74;100.00
55277;BME280;41136;51.478;-2.610;2023-02-20T06:55:16;101674.99;;;7.84;100.00
55277;BME280;41136;51.478;-2.610;2023-02-20T06:57:42;101668.51;;;8.18;100.00
55277;BME280;41136;51.478;-2.610;2023-02-20T07:00:08;101666.96;;;7.92;100.00
55277;BME280;41136;51.478;-2.610;2023-02-20T07:02:32;101665.73;;;7.97;100.00
55277;BME280;41136;51.478;-2.610;2023-02-20T07:04:58;101663.21;;;8.10;100.00
55277;BME280;41136;51.478;-2.610;2023-02-20T07:07:23;101673.07;;;8.27;100.00
55277;BME280;41136;51.478;-2.610;2023-02-20T07:09:49;101658.87;;;8.59;100.00
55277;BME280;41136;51.478;-2.610;2023-02-20T07:12:14;101651.77;;;8.03;100.00
55277;BME280;41136;51.478;-2.610;2023-02-20T07:14:39;101651.26;;;8.84;100.00
55277;BME280;41136;51.478;-2.610;2023-02-20T07:17:05;101659.70;;;8.77;100.00
55277;BME280;41136;51.478;-2.610;2023-02-20T07:19:30;101666.19;;;8.42;100.00
55277;BME280;41136;51.478;-2.610;2023-02-20T07:21:55;101665.07;;;8.38;100.00
55277;BME280;41136;51.478;-2.610;2023-02-20T07:24:21;101672.46;;;7.97;100.00
55277;BME280;41136;51.478;-2.610;2023-02-20T07:26:46;101670.06;;;8.32;100.00
55277;BME280;41136;51.478;-2.610;2023-02-20T07:29:12;101668.12;;;7.93;100.00
55277;BME280;41136;51.478;-2.610;2023-02-20T07:31:37;101663.87;;;8.20;100.00
55277;BME280;41136;51.478;-2.610;2023-02-20T07:34:02;101670.16;;;8.43;100.00
55277;BME280;41136;51.478;-2.610;2023-02-20T07:36:28;101675.79;;;7.76;100.00
55277;BME280;41136;51.478;-2.610;2023-02-20T07:38:54;101677.12;;;8.46;100.00
55277;BME280;41136;51.478;-2.610;2023-02-20T07:41:18;101687.42;;;8.44;100.00
55277;BME280;41136;51.478;-2.610;2023-02-20T07:43:44;101681.96;;;8.60;100.00
55277;BME280;41136;51.478;-2.610;2023-02-20T07:46:09;101680.37;;;8.54;100.00
55277;BME280;41136;51.478;-2.610;2023-02-20T07:48:35;101681.47;;;7.81;100.00
55277;BME280;41136;51.478;-2.610;2023-02-20T07:51:00;101678.05;;;8.13;100.00
55277;BME280;41136;51.478;-2.610;2023-02-20T07:53:25;101682.67;;;7.87;100.00
55277;BME280;41136;51.478;-2.610;2023-02-20T07:55:51;101694.71;;;7.78;100.00
55277;BME280;41136;51.478;-2.610;2023-02-20T07:58:16;101696.56;;;8.22;100.00
55277;BME280;41136;51.478;-2.610;2023-02-20T08:00:41;101694.40;;;7.85;100.00
55277;BME280;41136;51.478;-2.610;2023-02-20T08:03:07;101696.11;;;8.15;100.00
55277;BME280;41136;51.478;-2.610;2023-02-20T08:05:32;101681.48;;;8.28;100.00
55277;BME280;41136;51.478;-2.610;2023-02-20T08:07:57;101672.78;;;8.34;100.00
55277;BME280;41136;51.478;-2.610;2023-02-20T08:10:25;101680.14;;;8.24;100.00
55277;BME280;41136;51.478;-2.610;2023-02-20T08:12:49;101683.52;;;9.01;100.00
55277;BME280;41136;51.478;-2.610;2023-02-20T08:15:14;101685.90;;;8.47;100.00
55277;BME280;41136;51.478;-2.610;2023-02-20T08:17:40;101684.09;;;8.22;100.00
55277;BME280;41136;51.478;-2.610;2023-02-20T08:20:06;101688.75;;;8.58;100.00
55277;BME280;41136;51.478;-2.610;2023-02-20T08:22:30;101690.00;;;8.02;100.00
55277;BME280;41136;51.478;-2.610;2023-02-20T08:24:55;101695.88;;;7.71;100.00
55277;BME280;41136;51.478;-2.610;2023-02-20T08:27:20;101703.49;;;7.96;100.00
55277;BME280;41136;51.478;-2.610;2023-02-20T08:29:46;101698.53;;;8.51;100.00
55277;BME280;41136;51.478;-2.610;2023-02-20T08:32:11;101699.28;;;8.06;100.00
55277;BME280;41136;51.478;-2.610;2023-02-20T08:34:36;101705.67;;;7.90;100.00
55277;BME280;41136;51.478;-2.610;2023-02-20T08:37:02;101700.12;;;8.12;100.00
55277;BME280;41136;51.478;-2.610;2023-02-20T08:39:27;101702.45;;;8.07;100.00
55277;BME280;41136;51.478;-2.610;2023-02-20T08:41:52;101696.40;;;7.82;100.00
55277;BME280;41136;51.478;-2.610;2023-02-20T08:44:18;101693.25;;;8.21;100.00
55277;BME280;41136;51.478;-2.610;2023-02-20T08:46:45;101688.80;;;8.06;100.00
55277;BME280;41136;51.478;-2.610;2023-02-20T08:49:09;101691.86;;;8.26;100.00
55277;BME280;41136;51.478;-2.610;2023-02-20T08:51:34;101685.54;;;8.18;100.00
55277;BME280;41136;51.478;-2.610;2023-02-20T08:53:59;101687.71;;;7.91;100.00
55277;BME280;41136;51.478;-2.610;2023-02-20T08:56:25;101683.88;;;7.80;100.00
55277;BME280;41136;51.478;-2.610;2023-02-20T08:58:50;101685.48;;;7.70;100.00
55277;BME280;41136;51.478;-2.610;2023-02-20T09:01:15;101684.46;;;7.83;100.00
55277;BME280;41136;51.478;-2.610;2023-02-20T09:03:41;101688.31;;;8.46;100.00
55277;BME280;41136;51.478;-2.610;2023-02-20T09:06:06;101685.08;;;8.33;100.00
55277;BME280;41136;51.478;-2.610;2023-02-20T09:08:32;101687.30;;;8.38;100.00
55277;BME280;41136;51.478;-2.610;2023-02-20T09:10:57;101686.35;;;8.75;100.00
55277;BME280;41136;51.478;-2.610;2023-02-20T09:13:22;101686.84;;;8.74;100.00
55277;BME280;41136;51.478;-2.610;2023-02-20T09:15:48;101689.08;;;9.33;100.00
55277;BME280;41136;51.478;-2.610;2023-02-20T09:18:14;101686.42;;;9.07;100.00
55277;BME280;41136;51.478;-2.610;2023-02-20T09:20:39;101698.02;;;9.12;100.00
55277;BME280;41136;51.478;-2.610;2023-02-20T09:23:04;101704.08;;;9.37;100.00
55277;BME280;41136;51.478;-2.610;2023-02-20T09:25:29;101705.05;;;8.72;100.00
55277;BME280;41136;51.478;-2.610;2023-02-20T09:27:54;101706.67;;;8.49;100.00
55277;BME280;41136;51.478;-2.610;2023-02-20T09:30:20;101707.45;;;9.11;100.00
55277;BME280;41136;51.478;-2.610;2023-02-20T09:32:45;101710.59;;;9.34;100.00
55277;BME280;41136;51.478;-2.610;2023-02-20T09:35:14;101706.87;;;9.34;100.00
55277;BME280;41136;51.478;-2.610;2023-02-20T09:37:36;101705.79;;;8.96;100.00
55277;BME280;41136;51.478;-2.610;2023-02-20T09:40:01;101700.46;;;9.00;100.00
55277;BME280;41136;51.478;-2.610;2023-02-20T09:42:35;101699.77;;;9.04;100.00
55277;BME280;41136;51.478;-2.610;2023-02-20T09:45:00;101698.49;;;8.84;100.00
55277;BME280;41136;51.478;-2.610;2023-02-20T09:47:26;101694.64;;;9.11;100.00
55277;BME280;41136;51.478;-2.610;2023-02-20T09:49:43;101687.03;;;8.88;100.00
55277;BME280;41136;51.478;-2.610;2023-02-20T09:52:12;101686.82;;;8.85;100.00
55277;BME280;41136;51.478;-2.610;2023-02-20T09:54:36;101690.51;;;8.42;100.00
55277;BME280;41136;51.478;-2.610;2023-02-20T09:57:02;101683.55;;;8.84;100.00
55277;BME280;41136;51.478;-2.610;2023-02-20T09:59:27;101679.06;;;9.28;100.00
55277;BME280;41136;51.478;-2.610;2023-02-20T10:01:54;101679.69;;;8.76;100.00
55277;BME280;41136;51.478;-2.610;2023-02-20T10:04:17;101678.02;;;8.98;100.00
55277;BME280;41136;51.478;-2.610;2023-02-20T10:06:40;101678.95;;;8.44;100.00
55277;BME280;41136;51.478;-2.610;2023-02-20T10:09:09;101675.35;;;8.78;100.00
55277;BME280;41136;51.478;-2.610;2023-02-20T10:11:44;101675.67;;;8.81;100.00
55277;BME280;41136;51.478;-2.610;2023-02-20T10:14:05;101674.15;;;9.27;100.00
55277;BME280;41136;51.478;-2.610;2023-02-20T10:16:29;101670.79;;;9.41;100.00
55277;BME280;41136;51.478;-2.610;2023-02-20T10:18:53;101676.41;;;9.07;100.00
55277;BME280;41136;51.478;-2.610;2023-02-20T10:21:17;101671.13;;;9.02;100.00
55277;BME280;41136;51.478;-2.610;2023-02-20T10:23:45;101671.41;;;9.10;100.00
55277;BME280;41136;51.478;-2.610;2023-02-20T10:26:06;101664.94;;;8.98;100.00
55277;BME280;41136;51.478;-2.610;2023-02-20T10:28:29;101668.33;;;8.94;100.00
55277;BME280;41136;51.478;-2.610;2023-02-20T10:30:57;101678.81;;;9.36;100.00
55277;BME280;41136;51.478;-2.610;2023-02-20T10:33:24;101685.80;;;9.38;100.00
55277;BME280;41136;51.478;-2.610;2023-02-20T10:35:49;101687.00;;;9.39;100.00
55277;BME280;41136;51.478;-2.610;2023-02-20T10:38:12;101690.79;;;9.34;100.00
55277;BME280;41136;51.478;-2.610;2023-02-20T10:40:38;101690.01;;;9.29;100.00
55277;BME280;41136;51.478;-2.610;2023-02-20T10:43:04;101682.60;;;10.52;100.00
55277;BME280;41136;51.478;-2.610;2023-02-20T10:45:31;101679.21;;;10.23;100.00
55277;BME280;41136;51.478;-2.610;2023-02-20T10:47:56;101677.64;;;10.00;100.00
55277;BME280;41136;51.478;-2.610;2023-02-20T10:50:21;101684.03;;;10.47;100.00
55277;BME280;41136;51.478;-2.610;2023-02-20T10:52:47;101685.15;;;10.03;100.00
55277;BME280;41136;51.478;-2.610;2023-02-20T10:55:12;101680.84;;;10.78;100.00
55277;BME280;41136;51.478;-2.610;2023-02-20T10:57:37;101684.20;;;9.82;100.00
55277;BME280;41136;51.478;-2.610;2023-02-20T11:00:02;101689.26;;;9.63;100.00
55277;BME280;41136;51.478;-2.610;2023-02-20T11:02:25;101692.71;;;9.80;100.00
55277;BME280;41136;51.478;-2.610;2023-02-20T11:04:52;101687.80;;;9.97;100.00
55277;BME280;41136;51.478;-2.610;2023-02-20T11:07:15;101678.19;;;10.24;100.00
55277;BME280;41136;51.478;-2.610;2023-02-20T11:09:39;101678.21;;;9.48;100.00
55277;BME280;41136;51.478;-2.610;2023-02-20T11:12:05;101675.16;;;9.31;100.00
55277;BME280;41136;51.478;-2.610;2023-02-20T11:14:32;101673.09;;;9.59;100.00
55277;BME280;41136;51.478;-2.610;2023-02-20T11:16:59;101670.09;;;9.34;100.00
55277;BME280;41136;51.478;-2.610;2023-02-20T11:19:23;101670.48;;;8.85;100.00
55277;BME280;41136;51.478;-2.610;2023-02-20T11:21:48;101670.11;;;9.20;100.00
55277;BME280;41136;51.478;-2.610;2023-02-20T11:24:17;101672.36;;;8.97;100.00
55277;BME280;41136;51.478;-2.610;2023-02-20T11:26:36;101671.32;;;9.94;100.00
55277;BME280;41136;51.478;-2.610;2023-02-20T11:29:05;101664.95;;;9.89;100.00
55277;BME280;41136;51.478;-2.610;2023-02-20T11:31:28;101670.78;;;9.55;100.00
55277;BME280;41136;51.478;-2.610;2023-02-20T11:33:54;101674.62;;;9.35;100.00
55277;BME280;41136;51.478;-2.610;2023-02-20T11:36:21;101664.88;;;9.35;100.00
55277;BME280;41136;51.478;-2.610;2023-02-20T11:38:44;101673.09;;;9.72;100.00
55277;BME280;41136;51.478;-2.610;2023-02-20T11:43:40;101675.53;;;9.44;100.00
55277;BME280;41136;51.478;-2.610;2023-02-20T11:46:08;101676.02;;;8.80;100.00
55277;BME280;41136;51.478;-2.610;2023-02-20T11:48:24;101665.09;;;9.11;100.00
55277;BME280;41136;51.478;-2.610;2023-02-20T11:50:51;101661.20;;;9.18;100.00
55277;BME280;41136;51.478;-2.610;2023-02-20T11:53:19;101655.88;;;9.26;100.00
55277;BME280;41136;51.478;-2.610;2023-02-20T11:55:40;101651.34;;;9.40;100.00
55277;BME280;41136;51.478;-2.610;2023-02-20T12:03:03;101649.60;;;9.69;100.00
55277;BME280;41136;51.478;-2.610;2023-02-20T12:07:54;101646.75;;;10.05;100.00
55277;BME280;41136;51.478;-2.610;2023-02-20T12:10:23;101650.82;;;10.10;100.00
55277;BME280;41136;51.478;-2.610;2023-02-20T12:12:38;101647.01;;;10.13;100.00
55277;BME280;41136;51.478;-2.610;2023-02-20T12:15:10;101649.31;;;9.96;100.00
55277;BME280;41136;51.478;-2.610;2023-02-20T12:17:33;101650.80;;;10.05;100.00
55277;BME280;41136;51.478;-2.610;2023-02-20T12:19:59;101637.64;;;10.21;100.00
55277;BME280;41136;51.478;-2.610;2023-02-20T12:22:30;101637.49;;;10.16;100.00
55277;BME280;41136;51.478;-2.610;2023-02-20T12:24:53;101633.80;;;10.70;100.00
55277;BME280;41136;51.478;-2.610;2023-02-20T12:27:24;101631.73;;;10.36;100.00
55277;BME280;41136;51.478;-2.610;2023-02-20T12:29:41;101631.37;;;10.43;100.00
55277;BME280;41136;51.478;-2.610;2023-02-20T12:32:10;101629.79;;;10.33;100.00
55277;BME280;41136;51.478;-2.610;2023-02-20T12:34:36;101625.89;;;10.00;100.00
55277;BME280;41136;51.478;-2.610;2023-02-20T12:36:57;101622.73;;;9.84;100.00
55277;BME280;41136;51.478;-2.610;2023-02-20T12:39:24;101613.52;;;9.93;100.00
55277;BME280;41136;51.478;-2.610;2023-02-20T12:41:49;101609.35;;;10.42;100.00
55277;BME280;41136;51.478;-2.610;2023-02-20T12:44:21;101596.47;;;10.45;100.00
55277;BME280;41136;51.478;-2.610;2023-02-20T12:46:36;101593.93;;;10.81;100.00
55277;BME280;41136;51.478;-2.610;2023-02-20T12:49:11;101596.65;;;9.96;100.00
55277;BME280;41136;51.478;-2.610;2023-02-20T12:51:27;101589.89;;;10.45;100.00
55277;BME280;41136;51.478;-2.610;2023-02-20T12:53:57;101590.79;;;10.60;100.00
55277;BME280;41136;51.478;-2.610;2023-02-20T12:56:25;101583.72;;;11.40;100.00